createdAt,value
2018-02-24T00:01:42.556Z,56.50
2018-02-24T00:04:10.854Z,56.30
2018-02-24T00:06:39.130Z,56.60
2018-02-24T00:09:07.438Z,58.20
2018-02-24T00:11:35.002Z,58.20
2018-02-24T00:14:02.510Z,56.50
2018-02-24T00:16:30.035Z,57.00
2018-02-24T00:18:57.557Z,56.70
2018-02-24T00:21:25.963Z,57.40
2018-02-24T00:23:53.481Z,57.40
2018-02-24T00:26:21.001Z,57.60
2018-02-24T00:28:48.529Z,57.70
2018-02-24T00:31:16.088Z,57.80
2018-02-24T00:33:43.607Z,58.40
2018-02-24T00:36:11.126Z,58.10
2018-02-24T00:38:38.627Z,58.70
2018-02-24T00:41:06.249Z,58.50
2018-02-24T00:43:33.890Z,59.30
2018-02-24T00:46:01.419Z,58.60
2018-02-24T00:48:29.694Z,58.60
2018-02-24T00:50:58.982Z,59.00
2018-02-24T00:53:26.566Z,58.90
2018-02-24T00:55:54.841Z,59.10
2018-02-24T00:58:23.119Z,59.20
2018-02-24T01:00:51.397Z,59.40
2018-02-24T01:03:19.687Z,59.40
2018-02-24T01:05:47.217Z,59.30
2018-02-24T01:08:14.735Z,58.90
2018-02-24T01:10:42.255Z,59.30
2018-02-24T01:13:10.539Z,58.90
2018-02-24T01:15:38.066Z,58.90
2018-02-24T01:18:05.608Z,59.20
2018-02-24T01:20:33.118Z,59.70
2018-02-24T01:23:00.646Z,59.40
2018-02-24T01:25:28.150Z,59.70
2018-02-24T01:27:55.683Z,59.80
2018-02-24T01:30:23.958Z,60.40
2018-02-24T01:32:52.232Z,60.30
2018-02-24T01:35:20.526Z,60.70
2018-02-24T01:37:48.054Z,60.70
2018-02-24T01:40:15.576Z,60.90
2018-02-24T01:42:43.086Z,60.10
2018-02-24T01:45:11.367Z,61.30
2018-02-24T01:47:39.646Z,61.40
2018-02-24T01:50:07.925Z,61.10
2018-02-24T01:52:36.200Z,61.40
2018-02-24T01:55:04.487Z,61.80
2018-02-24T01:57:32.014Z,61.70
2018-02-24T01:59:59.529Z,61.80
2018-02-24T02:02:28.113Z,61.50
2018-02-24T02:04:55.633Z,61.70
2018-02-24T02:07:23.912Z,62.80
2018-02-24T02:09:52.202Z,62.50
2018-02-24T02:12:20.646Z,62.40
2018-02-24T02:14:48.176Z,62.80
2018-02-24T02:17:15.686Z,62.40
2018-02-24T02:19:43.970Z,63.10
2018-02-24T02:22:12.260Z,64.00
2018-02-24T02:24:39.767Z,63.20
2018-02-24T02:27:07.282Z,63.30
2018-02-24T02:29:34.797Z,62.80
2018-02-24T02:32:02.323Z,63.00
2018-02-24T02:34:29.826Z,63.60
2018-02-24T02:36:58.122Z,63.10
2018-02-24T02:39:26.393Z,63.40
2018-02-24T02:41:54.696Z,62.60
2018-02-24T02:44:22.219Z,62.50
2018-02-24T02:46:50.507Z,63.00
2018-02-24T02:49:18.777Z,63.20
2018-02-24T02:51:47.071Z,62.60
2018-02-24T02:54:14.595Z,62.60
2018-02-24T02:56:42.114Z,62.60
2018-02-24T02:59:10.660Z,62.40
2018-02-24T03:01:38.933Z,62.20
2018-02-24T03:04:07.225Z,62.00
2018-02-24T03:06:34.759Z,61.80
2018-02-24T03:09:04.077Z,62.20
2018-02-24T03:11:31.602Z,62.10
2018-02-24T03:13:59.125Z,62.70
2018-02-24T03:16:26.631Z,63.10
2018-02-24T03:18:54.148Z,61.90
2018-02-24T03:21:22.673Z,61.30
2018-02-24T03:23:50.194Z,61.70
2018-02-24T03:26:17.731Z,61.10
2018-02-24T03:28:45.270Z,60.70
2018-02-24T03:31:13.546Z,61.20
2018-02-24T03:33:41.835Z,60.90
2018-02-24T03:36:09.366Z,60.90
2018-02-24T03:38:36.890Z,61.10
2018-02-24T03:41:04.405Z,61.10
2018-02-24T03:43:32.682Z,60.70
2018-02-24T03:46:01.557Z,60.80
2018-02-24T03:48:29.834Z,61.50
2018-02-24T03:50:58.126Z,61.10
2018-02-24T03:53:26.404Z,59.80
2018-02-24T03:55:54.698Z,59.30
2018-02-24T03:58:22.215Z,59.30
2018-02-24T04:00:49.744Z,58.80
2018-02-24T04:03:17.254Z,59.20
2018-02-24T04:05:45.550Z,59.30
2018-02-24T04:08:13.070Z,59.30
2018-02-24T04:10:40.595Z,59.50
2018-02-24T04:13:08.106Z,58.90
2018-02-24T04:15:35.647Z,58.50
2018-02-24T04:18:03.170Z,58.40
2018-02-24T04:20:30.678Z,58.30
2018-02-24T04:22:58.977Z,57.70
2018-02-24T04:25:26.500Z,57.70
2018-02-24T04:27:54.022Z,57.20
2018-02-24T04:30:21.539Z,56.90
2018-02-24T04:32:49.847Z,56.70
2018-02-24T04:35:17.357Z,56.70
2018-02-24T04:37:44.888Z,56.90
2018-02-24T04:40:12.402Z,56.70
2018-02-24T04:42:39.992Z,57.20
2018-02-24T04:45:07.514Z,57.50
2018-02-24T04:47:35.790Z,55.90
2018-02-24T04:50:04.069Z,56.00
2018-02-24T04:52:32.350Z,56.30
2018-02-24T04:55:00.638Z,55.80
2018-02-24T04:57:28.161Z,55.70
2018-02-24T04:59:56.462Z,55.60
2018-02-24T05:02:24.734Z,55.70
2018-02-24T05:04:52.290Z,55.70
2018-02-24T05:07:20.570Z,54.80
2018-02-24T05:09:48.861Z,54.80
2018-02-24T05:12:16.392Z,54.80
2018-02-24T05:14:44.701Z,54.90
2018-02-24T05:17:12.211Z,54.90
2018-02-24T05:19:39.748Z,55.60
2018-02-24T05:22:07.257Z,56.30
2018-02-24T05:24:35.538Z,55.10
2018-02-24T05:27:03.805Z,55.20
2018-02-24T05:29:32.105Z,55.20
2018-02-24T05:31:59.631Z,55.20
2018-02-24T05:34:27.140Z,55.10
2018-02-24T05:36:54.678Z,56.20
2018-02-24T05:39:22.276Z,54.80
2018-02-24T05:41:49.805Z,54.80
2018-02-24T05:44:17.332Z,54.90
2018-02-24T05:46:44.887Z,55.30
2018-02-24T05:49:12.396Z,55.30
2018-02-24T05:51:39.936Z,55.40
2018-02-24T05:54:08.210Z,54.90
2018-02-24T05:56:36.521Z,55.20
2018-02-24T05:59:05.038Z,54.80
2018-02-24T06:01:32.578Z,55.30
2018-02-24T06:04:00.086Z,56.00
2018-02-24T06:06:28.369Z,58.00
2018-02-24T06:08:55.913Z,58.00
2018-02-24T06:11:24.200Z,59.70
2018-02-24T06:13:52.503Z,59.70
2018-02-24T06:16:20.030Z,59.70
2018-02-24T06:18:48.331Z,60.30
2018-02-24T06:21:15.860Z,60.30
2018-02-24T06:23:44.154Z,60.70
2018-02-24T06:26:12.436Z,60.50
2018-02-24T06:28:39.982Z,60.40
2018-02-24T06:31:08.275Z,61.10
2018-02-24T06:33:35.819Z,61.10
2018-02-24T06:36:04.094Z,61.70
2018-02-24T06:38:32.408Z,61.10
2018-02-24T06:40:59.936Z,61.10
2018-02-24T06:43:28.205Z,62.50
2018-02-24T06:45:56.498Z,62.60
2018-02-24T06:48:24.038Z,62.60
2018-02-24T06:50:51.577Z,63.00
2018-02-24T06:53:19.084Z,63.20
2018-02-24T06:55:46.616Z,63.40
2018-02-24T06:58:15.905Z,60.80
2018-02-24T07:00:43.499Z,60.80
2018-02-24T07:03:11.765Z,59.10
2018-02-24T07:05:40.055Z,58.50
2018-02-24T07:08:07.590Z,58.50
2018-02-24T07:10:35.874Z,56.90
2018-02-24T07:13:04.158Z,57.00
2018-02-24T07:15:31.709Z,57.00
2018-02-24T07:17:59.989Z,54.90
2018-02-24T07:20:28.298Z,55.00
2018-02-24T07:22:55.818Z,55.00
2018-02-24T07:25:24.086Z,53.50
2018-02-24T07:27:51.649Z,53.40
2018-02-24T07:30:19.154Z,53.10
2018-02-24T07:32:46.708Z,52.60
2018-02-24T07:35:14.263Z,51.80
2018-02-24T07:37:41.834Z,51.20
2018-02-24T07:40:09.369Z,50.80
2018-02-24T07:42:38.446Z,48.90
2018-02-24T07:45:06.735Z,48.40
2018-02-24T07:47:35.047Z,47.80
2018-02-24T07:50:02.547Z,47.60
2018-02-24T07:52:30.825Z,48.40
2018-02-24T07:54:58.325Z,48.30
2018-02-24T07:57:25.882Z,48.00
2018-02-24T07:59:53.394Z,48.70
2018-02-24T08:02:20.930Z,46.40
2018-02-24T08:04:48.432Z,46.10
2018-02-24T08:07:16.714Z,45.30
2018-02-24T08:09:44.277Z,45.30
2018-02-24T08:12:12.548Z,44.30
2018-02-24T08:14:40.844Z,44.70
2018-02-24T08:17:08.375Z,44.50
2018-02-24T08:19:36.675Z,45.30
2018-02-24T08:22:04.934Z,44.30
2018-02-24T08:24:33.222Z,44.90
2018-02-24T08:27:01.482Z,43.50
2018-02-24T08:29:30.504Z,44.50
2018-02-24T08:31:58.806Z,43.80
2018-02-24T08:34:26.314Z,43.70
2018-02-24T08:36:53.824Z,45.30
2018-02-24T08:39:21.389Z,44.60
2018-02-24T08:41:48.879Z,44.20
2018-02-24T08:44:16.371Z,44.60
2018-02-24T08:46:44.649Z,44.90
2018-02-24T08:49:12.910Z,44.50
2018-02-24T08:51:41.187Z,44.60
2018-02-24T08:54:09.446Z,43.00
2018-02-24T08:56:36.961Z,42.90
2018-02-24T08:59:04.464Z,42.30
2018-02-24T09:01:33.478Z,42.10
2018-02-24T09:04:01.738Z,43.10
2018-02-24T09:06:30.014Z,42.40
2018-02-24T09:08:59.061Z,43.90
2018-02-24T09:11:27.314Z,43.10
2018-02-24T09:13:55.577Z,44.20
2018-02-24T09:16:23.856Z,43.40
2018-02-24T09:18:52.113Z,43.30
2018-02-24T09:21:19.627Z,43.30
2018-02-24T09:23:48.171Z,42.40
2018-02-24T09:26:16.440Z,44.40
2018-02-24T09:28:43.956Z,44.30
2018-02-24T09:31:11.462Z,44.90
2018-02-24T09:33:39.047Z,43.70
2018-02-24T09:36:06.554Z,44.20
2018-02-24T09:38:34.077Z,45.60
2018-02-24T09:41:01.582Z,43.50
2018-02-24T09:43:29.087Z,43.00
2018-02-24T09:45:56.593Z,44.30
2018-02-24T09:48:24.112Z,44.70
2018-02-24T09:50:51.608Z,44.80
2018-02-24T09:53:19.117Z,43.20
2018-02-24T09:55:46.627Z,43.60
2018-02-24T09:58:14.118Z,42.40
2018-02-24T10:00:42.394Z,42.20
2018-02-24T10:03:10.646Z,42.80
2018-02-24T10:05:38.153Z,42.80
2018-02-24T10:08:05.720Z,42.10
2018-02-24T10:10:33.350Z,41.90
2018-02-24T10:13:01.770Z,41.80
2018-02-24T10:15:29.339Z,41.70
2018-02-24T10:17:56.854Z,42.40
2018-02-24T10:20:25.234Z,42.20
2018-02-24T10:22:53.582Z,41.80
2018-02-24T10:25:23.544Z,41.90
2018-02-24T10:27:51.051Z,41.90
2018-02-24T10:30:18.662Z,41.40
2018-02-24T10:32:46.169Z,42.50
2018-02-24T10:35:13.706Z,42.50
2018-02-24T10:37:42.218Z,42.00
2018-02-24T10:40:09.726Z,42.20
2018-02-24T10:42:37.263Z,41.70
2018-02-24T10:45:05.534Z,40.90
2018-02-24T10:47:33.810Z,40.40
2018-02-24T10:50:02.075Z,40.60
2018-02-24T10:52:29.608Z,40.40
2018-02-24T10:54:57.107Z,39.50
2018-02-24T10:57:25.427Z,39.10
2018-02-24T10:59:52.921Z,39.10
2018-02-24T11:02:20.443Z,39.00
2018-02-24T11:04:48.071Z,39.00
2018-02-24T11:07:16.385Z,39.50
2018-02-24T11:09:44.018Z,39.50
2018-02-24T11:12:11.531Z,38.80
2018-02-24T11:14:39.091Z,37.70
2018-02-24T11:17:06.604Z,37.60
2018-02-24T11:19:34.205Z,38.60
2018-02-24T11:22:01.848Z,39.10
2018-02-24T11:24:30.235Z,38.50
2018-02-24T11:26:57.814Z,37.90
2018-02-24T11:29:25.705Z,37.40
2018-02-24T11:31:53.983Z,36.80
2018-02-24T11:34:22.323Z,36.80
2018-02-24T11:36:50.245Z,36.90
2018-02-24T11:39:18.530Z,37.00
2018-02-24T11:41:46.046Z,37.00
2018-02-24T11:44:13.546Z,38.00
2018-02-24T11:46:41.914Z,38.90
2018-02-24T11:49:10.267Z,39.20
2018-02-24T11:51:38.579Z,39.00
2018-02-24T11:54:06.830Z,39.20
2018-02-24T11:56:34.341Z,39.20
2018-02-24T11:59:01.887Z,40.60
2018-02-24T12:01:30.281Z,40.00
2018-02-24T12:03:59.425Z,41.00
2018-02-24T12:06:27.739Z,41.20
2018-02-24T12:08:55.295Z,41.00
2018-02-24T12:11:23.673Z,40.60
2018-02-24T12:13:51.298Z,41.30
2018-02-24T12:16:18.794Z,42.30
2018-02-24T12:18:46.318Z,43.70
2018-02-24T12:21:13.869Z,43.70
2018-02-24T12:23:42.623Z,44.60
2018-02-24T12:26:10.252Z,45.50
2018-02-24T12:28:38.600Z,46.40
2018-02-24T12:31:06.150Z,46.30
2018-02-24T12:33:33.701Z,46.20
2018-02-24T12:36:01.858Z,46.80
2018-02-24T12:38:30.254Z,47.40
2018-02-24T12:40:57.746Z,48.10
2018-02-24T12:43:25.367Z,47.20
2018-02-24T12:45:53.110Z,46.90
2018-02-24T12:48:20.618Z,46.80
2018-02-24T12:50:48.118Z,46.20
2018-02-24T12:53:15.622Z,46.30
2018-02-24T12:55:43.139Z,46.70
2018-02-24T12:58:10.646Z,47.00
2018-02-24T13:00:38.150Z,46.50
2018-02-24T13:03:05.706Z,45.80
2018-02-24T13:05:33.227Z,45.70
2018-02-24T13:08:00.741Z,45.40
2018-02-24T13:10:28.243Z,44.50
2018-02-24T13:12:55.769Z,44.90
2018-02-24T13:15:24.280Z,45.10
2018-02-24T13:17:51.814Z,45.40
2018-02-24T13:20:20.262Z,44.30
2018-02-24T13:22:48.534Z,44.80
2018-02-24T13:25:16.879Z,44.40
2018-02-24T13:27:45.355Z,44.40
2018-02-24T13:30:12.926Z,45.10
2018-02-24T13:32:40.418Z,45.90
2018-02-24T13:35:08.748Z,46.30
2018-02-24T13:37:36.276Z,46.30
2018-02-24T13:40:03.840Z,45.60
2018-02-24T13:42:31.332Z,45.50
2018-02-24T13:44:58.860Z,45.40
2018-02-24T13:47:26.378Z,45.50
2018-02-24T13:49:55.649Z,47.00
2018-02-24T13:52:23.174Z,47.00
2018-02-24T13:54:50.686Z,46.90
2018-02-24T13:57:18.975Z,46.10
2018-02-24T13:59:46.530Z,46.00
2018-02-24T14:02:14.815Z,46.00
2018-02-24T14:04:43.066Z,46.00
2018-02-24T14:07:10.598Z,45.90
2018-02-24T14:09:38.108Z,46.00
2018-02-24T14:12:06.906Z,47.80
2018-02-24T14:14:35.182Z,46.90
2018-02-24T14:17:03.444Z,47.00
2018-02-24T14:19:31.723Z,48.20
2018-02-24T14:21:59.983Z,48.90
2018-02-24T14:24:27.484Z,48.90
2018-02-24T14:26:54.987Z,50.90
2018-02-24T14:29:22.479Z,51.30
2018-02-24T14:31:50.038Z,51.30
2018-02-24T14:34:18.296Z,51.60
2018-02-24T14:36:45.812Z,51.50
2018-02-24T14:39:13.298Z,51.10
2018-02-24T14:41:40.806Z,51.70
2018-02-24T14:44:08.323Z,53.50
2018-02-24T14:46:35.830Z,55.00
2018-02-24T14:49:03.404Z,56.60
2018-02-24T14:51:30.919Z,57.80
2018-02-24T14:53:59.998Z,58.90
2018-02-24T14:56:27.507Z,58.90
2018-02-24T14:58:55.055Z,60.00
2018-02-24T15:01:23.302Z,61.80
2018-02-24T15:03:50.958Z,61.70
2018-02-24T15:06:18.522Z,61.60
2018-02-24T15:08:46.017Z,60.00
2018-02-24T15:11:13.535Z,61.30
2018-02-24T15:13:41.038Z,63.20
2018-02-24T15:16:08.542Z,60.80
2018-02-24T15:18:36.046Z,62.50
2018-02-24T15:21:04.307Z,59.50
2018-02-24T15:23:32.578Z,58.70
2018-02-24T15:26:01.862Z,58.80
2018-02-24T15:28:29.365Z,58.80
2018-02-24T15:30:56.873Z,58.20
2018-02-24T15:33:24.383Z,59.10
2018-02-24T15:35:51.896Z,59.90
2018-02-24T15:38:19.426Z,61.00
2018-02-24T15:40:46.918Z,62.10
2018-02-24T15:43:14.427Z,58.30
2018-02-24T15:45:41.938Z,58.60
2018-02-24T15:48:09.422Z,58.90
2018-02-24T15:50:37.690Z,60.40
2018-02-24T15:53:05.962Z,61.50
2018-02-24T15:55:33.510Z,61.40
2018-02-24T15:58:00.995Z,62.20
2018-02-24T16:00:29.266Z,62.50
2018-02-24T16:02:57.519Z,62.90
2018-02-24T16:05:25.099Z,62.90
2018-02-24T16:07:53.355Z,64.20
2018-02-24T16:10:20.972Z,64.20
2018-02-24T16:12:48.477Z,64.40
2018-02-24T16:15:15.983Z,65.60
2018-02-24T16:17:43.523Z,65.60
2018-02-24T16:20:11.787Z,65.00
2018-02-24T16:22:40.066Z,65.40
2018-02-24T16:25:08.334Z,65.30
2018-02-24T16:27:35.926Z,65.30
2018-02-24T16:30:03.438Z,64.90
2018-02-24T16:32:30.948Z,65.60
2018-02-24T16:34:58.451Z,66.20
2018-02-24T16:37:25.956Z,66.80
2018-02-24T16:39:54.233Z,66.80
2018-02-24T16:42:21.814Z,66.80
2018-02-24T16:44:49.309Z,67.00
2018-02-24T16:47:16.829Z,67.50
2018-02-24T16:49:44.371Z,67.80
2018-02-24T16:52:11.890Z,67.80
2018-02-24T16:54:39.490Z,67.60
2018-02-24T16:57:07.002Z,68.10
2018-02-24T16:59:34.528Z,68.20
2018-02-24T17:02:02.043Z,68.50
2018-02-24T17:04:30.363Z,68.40
2018-02-24T17:06:57.894Z,68.30
2018-02-24T17:09:26.183Z,69.80
2018-02-24T17:11:53.702Z,69.00
2018-02-24T17:14:22.743Z,69.00
2018-02-24T17:16:50.267Z,68.90
2018-02-24T17:19:19.465Z,69.80
2018-02-24T17:21:47.791Z,69.80
2018-02-24T17:24:15.283Z,69.80
2018-02-24T17:26:42.790Z,69.90
2018-02-24T17:29:10.303Z,68.10
2018-02-24T17:31:37.824Z,66.90
2018-02-24T17:34:05.335Z,66.50
2018-02-24T17:36:32.841Z,66.90
2018-02-24T17:39:00.338Z,65.70
2018-02-24T17:41:27.964Z,65.40
2018-02-24T17:43:55.471Z,65.50
2018-02-24T17:46:24.504Z,65.70
2018-02-24T17:48:52.014Z,65.70
2018-02-24T17:51:19.528Z,65.90
2018-02-24T17:53:47.042Z,65.80
2018-02-24T17:56:15.306Z,66.30
2018-02-24T17:58:42.838Z,66.30
2018-02-24T18:01:10.334Z,66.40
2018-02-24T18:03:37.844Z,66.50
2018-02-24T18:06:05.376Z,66.40
2018-02-24T18:08:33.643Z,66.80
2018-02-24T18:11:01.926Z,67.20
2018-02-24T18:13:30.227Z,66.90
2018-02-24T18:15:57.756Z,66.90
2018-02-24T18:18:27.034Z,66.90
2018-02-24T18:20:54.656Z,66.90
2018-02-24T18:23:22.151Z,67.30
2018-02-24T18:25:49.660Z,67.80
2018-02-24T18:28:17.183Z,68.00
2018-02-24T18:30:45.463Z,68.40
2018-02-24T18:33:14.467Z,68.50
2018-02-24T18:35:42.726Z,68.70
2018-02-24T18:38:10.242Z,68.70
2018-02-24T18:40:37.735Z,69.10
2018-02-24T18:43:05.243Z,68.80
2018-02-24T18:45:32.740Z,68.30
2018-02-24T18:48:00.246Z,68.70
2018-02-24T18:50:28.508Z,68.40
2018-02-24T18:52:56.806Z,67.90
2018-02-24T18:55:24.322Z,67.80
2018-02-24T18:57:51.835Z,68.00
2018-02-24T19:00:19.343Z,67.40
2018-02-24T19:02:46.878Z,66.90
2018-02-24T19:05:14.368Z,67.10
2018-02-24T19:07:41.857Z,67.10
2018-02-24T19:10:10.126Z,67.20
2018-02-24T19:12:38.379Z,67.30
2018-02-24T19:15:05.888Z,67.30
2018-02-24T19:17:33.394Z,67.40
2018-02-24T19:20:00.919Z,67.20
2018-02-24T19:22:28.438Z,67.60
2018-02-24T19:24:56.710Z,67.20
2018-02-24T19:27:25.024Z,66.70
2018-02-24T19:29:52.530Z,67.20
2018-02-24T19:32:20.804Z,66.20
2018-02-24T19:34:48.325Z,66.20
2018-02-24T19:37:16.840Z,66.10
2018-02-24T19:39:44.343Z,66.50
2018-02-24T19:42:11.870Z,65.80
2018-02-24T19:44:41.054Z,65.90
2018-02-24T19:47:08.559Z,65.80
2018-02-24T19:49:36.098Z,65.50
2018-02-24T19:52:04.378Z,65.30
2018-02-24T19:54:32.627Z,65.20
2018-02-24T19:57:00.134Z,65.20
2018-02-24T19:59:27.644Z,65.00
2018-02-24T20:01:55.159Z,65.30
2018-02-24T20:04:22.654Z,64.90
2018-02-24T20:06:50.166Z,65.00
2018-02-24T20:09:17.670Z,64.50
2018-02-24T20:11:45.212Z,64.50
2018-02-24T20:14:12.728Z,64.60
2018-02-24T20:16:40.996Z,64.90
2018-02-24T20:19:09.285Z,64.30
2018-02-24T20:21:37.550Z,63.50
2018-02-24T20:24:05.867Z,63.30
2018-02-24T20:26:33.358Z,63.30
2018-02-24T20:29:00.878Z,63.50
2018-02-24T20:31:28.375Z,64.10
2018-02-24T20:33:55.929Z,63.50
2018-02-24T20:36:24.243Z,63.30
2018-02-24T20:38:52.523Z,62.60
2018-02-24T20:41:20.802Z,62.80
2018-02-24T20:43:49.081Z,63.20
2018-02-24T20:46:17.350Z,63.50
2018-02-24T20:48:45.617Z,63.00
2018-02-24T20:51:13.889Z,63.30
2018-02-24T20:53:41.395Z,63.30
2018-02-24T20:56:08.898Z,62.50
2018-02-24T20:58:36.402Z,61.50
2018-02-24T21:01:03.928Z,61.90
2018-02-24T21:03:32.206Z,61.90
2018-02-24T21:06:00.503Z,61.80
2018-02-24T21:08:28.766Z,60.70
2018-02-24T21:10:57.138Z,60.90
2018-02-24T21:13:24.646Z,60.80
2018-02-24T21:15:52.140Z,60.90
2018-02-24T21:18:20.458Z,60.80
2018-02-24T21:20:48.027Z,60.80
2018-02-24T21:23:15.546Z,60.60
2018-02-24T21:25:43.039Z,60.00
2018-02-24T21:28:10.568Z,60.30
2018-02-24T21:30:38.055Z,60.80
2018-02-24T21:33:05.566Z,60.70
2018-02-24T21:35:33.079Z,60.90
2018-02-24T21:38:00.590Z,60.40
2018-02-24T21:40:28.100Z,60.90
2018-02-24T21:42:55.618Z,61.70
2018-02-24T21:45:23.130Z,62.50
2018-02-24T21:47:50.638Z,63.00
2018-02-24T21:50:18.151Z,62.10
2018-02-24T21:52:46.663Z,62.20
2018-02-24T21:55:14.187Z,62.70
2018-02-24T21:57:41.677Z,63.20
2018-02-24T22:00:09.249Z,63.00
2018-02-24T22:02:36.727Z,62.40
2018-02-24T22:05:05.026Z,62.80
2018-02-24T22:07:32.552Z,62.80
2018-02-24T22:10:00.242Z,63.20
2018-02-24T22:12:27.766Z,64.00
2018-02-24T22:14:55.254Z,63.40
2018-02-24T22:17:23.539Z,63.60
2018-02-24T22:19:51.054Z,63.60
2018-02-24T22:22:18.592Z,63.40
2018-02-24T22:24:46.143Z,62.60
2018-02-24T22:27:13.668Z,62.20
2018-02-24T22:29:41.933Z,62.40
2018-02-24T22:34:17.106Z,62.70
2018-02-24T22:36:44.622Z,62.00
2018-02-24T22:39:12.137Z,61.60
2018-02-24T22:41:39.663Z,61.10
2018-02-24T22:44:07.939Z,60.30
2018-02-24T22:46:36.202Z,60.40
2018-02-24T22:49:03.727Z,60.30
2018-02-24T22:51:31.222Z,60.70
2018-02-24T22:53:58.734Z,60.20
2018-02-24T22:56:26.230Z,60.40
2018-02-24T22:58:55.258Z,60.60
2018-02-24T23:01:22.779Z,60.60
2018-02-24T23:03:50.286Z,60.20
2018-02-24T23:06:17.813Z,59.70
2018-02-24T23:08:45.300Z,59.90
2018-02-24T23:11:12.826Z,59.90
2018-02-24T23:13:40.322Z,60.20
2018-02-24T23:16:07.837Z,60.90
2018-02-24T23:18:35.351Z,60.60
2018-02-24T23:21:02.854Z,60.40
2018-02-24T23:23:30.388Z,59.80
2018-02-24T23:25:57.882Z,59.60
2018-02-24T23:28:25.430Z,60.00
2018-02-24T23:30:52.986Z,59.80
2018-02-24T23:33:20.505Z,60.10
2018-02-24T23:35:48.018Z,60.40
2018-02-24T23:38:15.518Z,59.90
2018-02-24T23:40:43.035Z,60.00
2018-02-24T23:43:10.540Z,59.90
2018-02-24T23:45:38.081Z,60.20
2018-02-24T23:48:05.608Z,59.80
2018-02-24T23:50:33.110Z,60.60
2018-02-24T23:53:00.631Z,60.60
2018-02-24T23:55:28.131Z,60.50
2018-02-24T23:57:55.649Z,60.40
